Time;durP1;ratioP1;P1;durP2;ratioP2;P2;SDS_P1;SDS_P2;PMS_P1;PMS_P2;Temp;Humidity;BMP_temperature;BMP_pressure;BME280_temperature;BME280_humidity;BME280_pressure;Samples;Min_cycle;Max_cycle;Signal;HPM_P1;HPM_P2
2023/05/09 00:01:12;;;;;;;58.60;31.48;;;15.20;99.90;;;;;;4939081;29;20060;-72
2023/05/09 00:03:39;;;;;;;54.63;30.10;;;15.20;99.90;;;;;;4947940;29;20475;-72
2023/05/09 00:06:05;;;;;;;54.72;29.80;;;15.20;99.90;;;;;;4947540;29;20019;-72
2023/05/09 00:08:32;;;;;;;52.13;29.45;;;15.20;99.90;;;;;;4939128;28;20114;-72
2023/05/09 00:10:57;;;;;;;54.03;29.02;;;15.20;99.90;;;;;;4944162;29;20038;-72
2023/05/09 00:13:23;;;;;;;50.97;27.60;;;15.20;99.90;;;;;;4952681;28;20403;-72
2023/05/09 00:15:52;;;;;;;47.85;27.27;;;15.20;99.90;;;;;;4945269;28;20035;-72
2023/05/09 00:18:21;;;;;;;49.25;27.90;;;15.20;99.90;;;;;;4949973;29;20066;-72
2023/05/09 00:20:47;;;;;;;48.05;28.13;;;15.20;99.90;;;;;;4945646;28;20070;-72
2023/05/09 00:23:13;;;;;;;49.28;26.98;;;15.20;99.90;;;;;;4953233;28;20054;-72
2023/05/09 00:25:38;;;;;;;47.03;27.73;;;15.20;99.90;;;;;;4940469;28;20059;-72
2023/05/09 00:28:04;;;;;;;51.63;27.98;;;15.20;99.90;;;;;;4951824;29;20049;-72
2023/05/09 00:30:30;;;;;;;51.05;27.80;;;15.20;99.90;;;;;;4952934;28;20023;-72
2023/05/09 00:32:56;;;;;;;53.58;28.67;;;15.20;99.90;;;;;;4949915;28;20421;-72
2023/05/09 00:35:21;;;;;;;53.28;28.35;;;15.20;99.90;;;;;;4944713;29;20028;-72
2023/05/09 00:37:47;;;;;;;48.20;27.83;;;15.20;99.90;;;;;;4953029;28;20102;-72
2023/05/09 00:40:13;;;;;;;48.65;28.30;;;15.20;99.90;;;;;;4952920;28;20482;-72
2023/05/09 00:42:38;;;;;;;51.67;28.05;;;15.20;99.90;;;;;;4951810;29;20035;-72
2023/05/09 00:45:05;;;;;;;46.03;26.60;;;15.20;99.90;;;;;;4949193;29;20079;-71
2023/05/09 00:47:33;;;;;;;50.05;27.08;;;15.20;99.90;;;;;;4953369;28;20107;-72
2023/05/09 00:50:00;;;;;;;43.47;25.90;;;15.20;99.90;;;;;;4947005;29;20122;-72
2023/05/09 00:52:26;;;;;;;46.42;26.25;;;15.20;99.90;;;;;;4953010;28;20027;-72
2023/05/09 00:54:54;;;;;;;41.83;24.98;;;15.20;99.90;;;;;;4945987;29;20034;-72
2023/05/09 00:57:21;;;;;;;50.05;24.98;;;15.20;99.90;;;;;;4953254;28;20075;-72
2023/05/09 00:59:47;;;;;;;41.58;24.08;;;15.20;99.90;;;;;;4951425;28;20455;-72
2023/05/09 01:02:15;;;;;;;41.65;24.63;;;15.20;99.90;;;;;;4946920;29;20031;-72
2023/05/09 01:04:41;;;;;;;43.30;24.20;;;15.20;99.90;;;;;;4948717;29;20028;-72
2023/05/09 01:07:18;;;;;;;42.13;23.65;;;15.20;99.90;;;;;;4952385;29;20023;-72
2023/05/09 01:10:10;;;;;;;40.65;23.30;;;15.20;99.90;;;;;;4945382;29;20024;-72
2023/05/09 01:12:36;;;;;;;42.22;23.52;;;15.20;99.90;;;;;;4947532;29;20048;-72
2023/05/09 01:15:11;;;;;;;39.63;22.23;;;15.20;99.90;;;;;;4951617;29;20095;-72
2023/05/09 01:18:02;;;;;;;39.25;22.55;;;15.20;99.90;;;;;;4947197;29;20513;-72
2023/05/09 01:20:37;;;;;;;44.58;23.70;;;15.20;99.90;;;;;;4930524;29;20077;-72
2023/05/09 01:23:21;;;;;;;36.17;21.95;;;15.20;99.90;;;;;;4934883;29;20024;-72
2023/05/09 01:26:04;;;;;;;40.28;21.77;;;15.20;99.90;;;;;;4946804;29;20051;-72
2023/05/09 01:28:51;;;;;;;42.55;23.23;;;15.20;99.90;;;;;;4943742;28;20387;-72
2023/05/09 01:31:18;;;;;;;40.83;22.58;;;15.20;99.90;;;;;;4937435;29;20020;-72
2023/05/09 01:33:48;;;;;;;39.05;21.70;;;15.20;99.90;;;;;;4944871;29;20070;-72
2023/05/09 01:36:17;;;;;;;39.67;21.98;;;15.10;99.90;;;;;;4945534;29;20050;-72
2023/05/09 01:38:44;;;;;;;39.38;21.90;;;15.10;99.90;;;;;;4952731;28;20023;-72
2023/05/09 01:41:13;;;;;;;39.60;21.40;;;15.10;99.90;;;;;;4949774;29;20019;-72
2023/05/09 01:43:41;;;;;;;42.22;21.48;;;15.10;99.90;;;;;;4952060;29;20558;-72
2023/05/09 01:46:08;;;;;;;34.78;21.10;;;15.10;99.90;;;;;;4954066;28;20027;-72
2023/05/09 01:48:36;;;;;;;38.17;20.65;;;15.10;99.90;;;;;;4947593;28;20023;-72
2023/05/09 01:51:04;;;;;;;37.85;21.05;;;15.10;99.90;;;;;;4951132;29;20032;-72
2023/05/09 01:53:31;;;;;;;34.38;20.50;;;15.10;99.90;;;;;;4944998;29;20035;-72
2023/05/09 01:55:58;;;;;;;35.50;20.13;;;15.00;99.90;;;;;;4951059;29;20447;-72
2023/05/09 01:58:25;;;;;;;38.20;20.40;;;15.00;99.90;;;;;;4949256;28;20691;-72
2023/05/09 02:00:52;;;;;;;36.05;19.70;;;15.00;99.90;;;;;;4948653;29;20035;-72
2023/05/09 02:03:18;;;;;;;35.20;20.25;;;15.10;99.90;;;;;;4950151;28;20098;-71
2023/05/09 02:05:46;;;;;;;38.72;20.48;;;15.10;99.90;;;;;;4944728;28;20051;-72
2023/05/09 02:08:14;;;;;;;37.42;21.08;;;15.10;99.90;;;;;;4949070;29;20514;-72
2023/05/09 02:10:39;;;;;;;40.35;21.15;;;15.00;99.90;;;;;;4940709;28;20031;-72
2023/05/09 02:13:05;;;;;;;35.92;20.45;;;15.00;99.90;;;;;;4945557;29;20020;-72
2023/05/09 02:15:31;;;;;;;38.88;20.67;;;15.00;99.90;;;;;;4952324;29;20419;-72
2023/05/09 02:17:57;;;;;;;36.00;20.33;;;15.00;99.90;;;;;;4954380;29;20031;-71
2023/05/09 02:20:22;;;;;;;36.20;19.95;;;15.00;99.90;;;;;;4953200;28;20099;-72
2023/05/09 02:22:48;;;;;;;34.63;19.13;;;15.00;99.90;;;;;;4955651;28;20383;-72
2023/05/09 02:25:14;;;;;;;31.65;19.05;;;15.00;99.90;;;;;;4955248;29;20493;-71
2023/05/09 02:27:40;;;;;;;29.90;18.10;;;15.00;99.90;;;;;;4950210;28;20034;-72
2023/05/09 02:30:10;;;;;;;35.05;17.60;;;15.00;99.90;;;;;;4955587;28;20379;-72
2023/05/09 02:32:37;;;;;;;30.23;17.48;;;15.00;99.90;;;;;;4954201;28;20058;-71
2023/05/09 02:35:05;;;;;;;35.33;18.30;;;15.00;99.90;;;;;;4953496;29;20027;-71
2023/05/09 02:37:32;;;;;;;29.95;16.52;;;15.00;99.90;;;;;;4947315;29;20107;-72
2023/05/09 02:39:58;;;;;;;28.98;16.95;;;15.00;99.90;;;;;;4953686;29;20430;-72
2023/05/09 02:42:25;;;;;;;33.35;17.58;;;15.00;99.90;;;;;;4952076;29;20023;-72
2023/05/09 02:44:54;;;;;;;31.50;17.50;;;15.00;99.90;;;;;;4954036;28;20032;-72
2023/05/09 02:47:20;;;;;;;28.10;17.40;;;15.00;99.90;;;;;;4953305;29;20567;-72
2023/05/09 02:49:46;;;;;;;30.25;16.60;;;15.00;99.90;;;;;;4946733;28;20031;-71
2023/05/09 02:52:12;;;;;;;29.00;16.92;;;15.00;99.90;;;;;;4945781;29;20356;-72
2023/05/09 02:54:38;;;;;;;30.70;18.20;;;15.00;99.90;;;;;;4946859;28;20033;-72
2023/05/09 02:57:04;;;;;;;32.63;17.77;;;15.00;99.90;;;;;;4951533;29;20033;-72
2023/05/09 02:59:30;;;;;;;31.13;18.00;;;15.00;99.90;;;;;;4937797;29;20051;-72
2023/05/09 03:01:56;;;;;;;30.42;18.73;;;15.00;99.90;;;;;;4952228;29;20030;-72
2023/05/09 03:04:22;;;;;;;35.85;19.17;;;15.00;99.90;;;;;;4944144;29;20019;-72
2023/05/09 03:06:48;;;;;;;31.83;18.75;;;15.00;99.90;;;;;;4949799;28;20024;-72
2023/05/09 03:09:14;;;;;;;33.60;19.48;;;15.00;99.90;;;;;;4947433;29;20027;-72
2023/05/09 03:11:39;;;;;;;36.42;18.80;;;14.90;99.90;;;;;;4945467;28;20027;-72
2023/05/09 03:14:07;;;;;;;34.22;18.85;;;14.90;99.90;;;;;;4951440;28;20032;-72
2023/05/09 03:16:33;;;;;;;35.15;18.75;;;14.90;99.90;;;;;;4946768;29;20083;-72
2023/05/09 03:18:59;;;;;;;29.73;18.55;;;14.90;99.90;;;;;;4954712;29;20121;-72
2023/05/09 03:21:24;;;;;;;31.52;18.13;;;14.90;99.90;;;;;;4954081;29;20130;-72
2023/05/09 03:23:50;;;;;;;37.47;18.95;;;14.90;99.90;;;;;;4952740;28;20562;-72
2023/05/09 03:26:15;;;;;;;29.45;18.65;;;14.90;99.90;;;;;;4954096;29;20031;-72
2023/05/09 03:28:41;;;;;;;36.92;19.35;;;14.90;99.90;;;;;;4947225;28;20024;-72
2023/05/09 03:31:06;;;;;;;36.42;18.90;;;14.90;99.90;;;;;;4951142;29;20043;-72
2023/05/09 03:33:32;;;;;;;30.40;18.63;;;14.90;99.90;;;;;;4953359;28;20513;-72
2023/05/09 03:35:58;;;;;;;30.48;18.17;;;14.90;99.90;;;;;;4949430;29;20027;-72
2023/05/09 03:38:23;;;;;;;40.20;19.73;;;14.90;99.90;;;;;;4950674;29;20055;-72
2023/05/09 03:40:50;;;;;;;36.30;20.33;;;14.90;99.90;;;;;;4950410;29;20035;-72
2023/05/09 03:43:15;;;;;;;32.97;19.48;;;14.90;99.90;;;;;;4950281;29;20024;-72
2023/05/09 03:45:41;;;;;;;33.08;19.52;;;14.90;99.90;;;;;;4947529;29;20027;-73
2023/05/09 03:48:08;;;;;;;33.05;19.40;;;14.90;99.90;;;;;;4952390;29;20031;-72
2023/05/09 03:50:34;;;;;;;35.58;19.15;;;14.90;99.90;;;;;;4946567;29;20030;-71
2023/05/09 03:53:00;;;;;;;34.30;19.85;;;14.90;99.90;;;;;;4953641;28;20375;-71
2023/05/09 03:55:26;;;;;;;34.85;20.00;;;14.90;99.90;;;;;;4950617;28;20476;-71
2023/05/09 03:57:53;;;;;;;38.67;20.23;;;14.90;99.90;;;;;;4953799;28;20026;-71
2023/05/09 04:00:19;;;;;;;32.05;19.95;;;14.90;99.90;;;;;;4943454;28;20023;-71
2023/05/09 04:02:44;;;;;;;37.42;20.40;;;14.90;99.90;;;;;;4953723;28;20031;-71
2023/05/09 04:05:10;;;;;;;36.10;19.95;;;14.90;99.90;;;;;;4953484;28;20023;-71
2023/05/09 04:07:36;;;;;;;36.13;18.85;;;14.90;99.90;;;;;;4953579;29;20146;-71
2023/05/09 04:10:02;;;;;;;40.70;20.00;;;14.90;99.90;;;;;;4951350;29;20478;-71
2023/05/09 04:12:28;;;;;;;36.15;19.65;;;14.90;99.90;;;;;;4953226;29;20147;-71
2023/05/09 04:14:53;;;;;;;34.67;19.92;;;14.90;99.90;;;;;;4949930;28;20034;-71
2023/05/09 04:17:19;;;;;;;37.90;20.75;;;14.90;99.90;;;;;;4953507;28;20383;-71
2023/05/09 04:19:44;;;;;;;34.72;18.90;;;14.90;99.90;;;;;;4947143;29;20038;-72
2023/05/09 04:22:10;;;;;;;38.28;20.63;;;14.90;99.90;;;;;;4953289;28;20030;-71
2023/05/09 04:24:35;;;;;;;35.90;20.08;;;14.90;99.90;;;;;;4943816;29;20015;-71
2023/05/09 04:27:01;;;;;;;33.80;20.27;;;14.90;99.90;;;;;;4946949;29;20632;-72
2023/05/09 04:29:27;;;;;;;37.70;20.58;;;14.90;99.90;;;;;;4939583;28;20372;-72
2023/05/09 04:31:52;;;;;;;35.47;20.77;;;15.00;99.90;;;;;;4952717;29;20015;-72
2023/05/09 04:34:18;;;;;;;36.65;20.25;;;15.00;99.90;;;;;;4951596;29;20090;-72
2023/05/09 04:36:44;;;;;;;36.03;21.45;;;15.00;99.90;;;;;;4952090;29;20023;-72
2023/05/09 04:39:10;;;;;;;33.75;19.80;;;14.90;99.90;;;;;;4953182;28;20039;-72
2023/05/09 04:41:36;;;;;;;37.70;19.55;;;14.90;99.90;;;;;;4945833;29;20094;-72
2023/05/09 04:44:02;;;;;;;38.55;20.23;;;14.90;99.90;;;;;;4946335;29;20058;-72
2023/05/09 04:46:27;;;;;;;39.38;21.05;;;14.90;99.90;;;;;;4951249;28;20031;-72
2023/05/09 04:48:53;;;;;;;35.22;20.50;;;14.80;99.90;;;;;;4948108;29;20082;-72
2023/05/09 04:51:19;;;;;;;31.90;19.50;;;14.90;99.90;;;;;;4947096;29;20032;-72
2023/05/09 04:53:44;;;;;;;30.83;18.60;;;14.90;99.90;;;;;;4952498;29;20023;-72
2023/05/09 04:56:10;;;;;;;32.40;19.38;;;14.80;99.90;;;;;;4946960;29;20043;-72
2023/05/09 04:58:39;;;;;;;32.45;18.15;;;14.90;99.90;;;;;;4948299;28;20135;-72
2023/05/09 05:01:05;;;;;;;35.60;19.42;;;14.90;99.90;;;;;;4944905;29;20090;-72
2023/05/09 05:03:31;;;;;;;33.00;17.73;;;14.90;99.90;;;;;;4952111;28;20027;-72
2023/05/09 05:05:56;;;;;;;35.78;18.23;;;14.90;99.90;;;;;;4947661;28;20078;-72
2023/05/09 05:08:22;;;;;;;31.58;18.02;;;14.90;99.90;;;;;;4952568;28;20474;-72
2023/05/09 05:10:48;;;;;;;32.03;18.15;;;14.90;99.90;;;;;;4950328;29;20031;-72
2023/05/09 05:13:14;;;;;;;30.85;18.15;;;15.00;99.90;;;;;;4954666;29;20024;-72
2023/05/09 05:15:40;;;;;;;31.95;17.52;;;15.00;99.90;;;;;;4956659;28;20102;-72
2023/05/09 05:18:06;;;;;;;29.75;17.15;;;14.90;99.90;;;;;;4952846;29;20062;-72
2023/05/09 05:20:32;;;;;;;31.70;16.77;;;15.00;99.90;;;;;;4952138;28;20062;-72
2023/05/09 05:22:57;;;;;;;28.77;16.77;;;14.90;99.90;;;;;;4942143;29;20034;-72
2023/05/09 05:25:24;;;;;;;30.35;16.48;;;14.90;99.90;;;;;;4949930;29;20023;-73
2023/05/09 05:27:50;;;;;;;29.48;16.77;;;14.80;99.90;;;;;;4953879;29;20037;-72
2023/05/09 05:30:15;;;;;;;31.92;17.10;;;14.80;99.90;;;;;;4953288;29;20158;-72
2023/05/09 05:32:42;;;;;;;28.60;15.77;;;14.80;99.90;;;;;;4953890;29;20449;-72
2023/05/09 05:35:10;;;;;;;29.83;16.67;;;14.80;99.90;;;;;;4955881;28;20101;-72
2023/05/09 05:37:40;;;;;;;31.23;18.63;;;14.80;99.90;;;;;;4953290;28;20023;-72
2023/05/09 05:40:06;;;;;;;28.48;17.65;;;14.70;99.90;;;;;;4952363;28;20035;-72
2023/05/09 05:42:32;;;;;;;34.22;18.05;;;14.70;99.90;;;;;;4952791;29;20036;-72
2023/05/09 05:45:03;;;;;;;33.08;18.33;;;14.70;99.90;;;;;;4954062;28;20046;-72
2023/05/09 05:47:33;;;;;;;34.60;19.27;;;14.70;99.90;;;;;;4955886;28;20043;-72
2023/05/09 05:50:00;;;;;;;31.73;19.10;;;14.70;99.90;;;;;;4955617;29;20154;-72
2023/05/09 05:52:26;;;;;;;32.20;18.80;;;14.60;99.90;;;;;;4955449;29;20035;-72
2023/05/09 05:54:53;;;;;;;30.52;19.17;;;14.70;99.90;;;;;;4954476;29;20042;-72
2023/05/09 05:57:19;;;;;;;31.65;18.23;;;14.70;99.90;;;;;;4945486;28;20027;-72
2023/05/09 05:59:49;;;;;;;31.27;19.38;;;14.70;99.90;;;;;;4954519;28;20078;-72
2023/05/09 06:02:15;;;;;;;36.95;18.63;;;14.60;99.90;;;;;;4951908;29;20025;-72
2023/05/09 06:04:41;;;;;;;31.50;18.83;;;14.70;99.90;;;;;;4954940;28;20023;-72
2023/05/09 06:07:07;;;;;;;33.75;19.40;;;14.70;99.90;;;;;;4955516;29;20081;-72
2023/05/09 06:09:33;;;;;;;30.65;18.88;;;14.70;99.90;;;;;;4947978;29;20407;-72
2023/05/09 06:11:58;;;;;;;28.63;18.40;;;14.70;99.90;;;;;;4951364;29;20047;-72
2023/05/09 06:14:24;;;;;;;32.92;18.85;;;14.70;99.90;;;;;;4950053;29;20035;-72
2023/05/09 06:16:50;;;;;;;36.47;18.52;;;14.70;99.90;;;;;;4946802;28;20019;-73
2023/05/09 06:19:16;;;;;;;33.42;17.80;;;14.70;99.90;;;;;;4949246;28;20579;-72
2023/05/09 06:21:42;;;;;;;30.55;17.17;;;14.70;99.90;;;;;;4945293;28;20111;-72
2023/05/09 06:24:08;;;;;;;29.50;17.58;;;14.70;99.90;;;;;;4941091;29;20437;-72
2023/05/09 06:26:34;;;;;;;27.13;16.55;;;14.70;99.90;;;;;;4940495;29;20139;-72
2023/05/09 06:28:59;;;;;;;26.88;15.55;;;14.70;99.90;;;;;;4949087;29;20028;-76
2023/05/09 06:31:25;;;;;;;28.52;16.08;;;14.70;99.90;;;;;;4949577;29;20094;-72
2023/05/09 06:33:51;;;;;;;23.63;14.55;;;14.60;99.90;;;;;;4949660;28;20019;-72
2023/05/09 06:36:17;;;;;;;24.83;14.75;;;14.60;99.90;;;;;;4951515;29;20024;-72
2023/05/09 06:38:42;;;;;;;30.52;15.32;;;14.60;99.90;;;;;;4947157;29;20019;-72
2023/05/09 06:41:08;;;;;;;26.67;15.40;;;14.60;99.90;;;;;;4952979;29;20070;-72
2023/05/09 06:43:33;;;;;;;29.70;15.85;;;14.60;99.90;;;;;;4944825;29;20382;-72
2023/05/09 06:45:59;;;;;;;27.73;15.32;;;14.60;99.90;;;;;;4939351;29;20034;-72
2023/05/09 06:48:25;;;;;;;24.35;14.45;;;14.60;99.90;;;;;;4939474;29;20608;-72
2023/05/09 06:50:51;;;;;;;25.63;15.10;;;14.60;99.90;;;;;;4937256;29;20119;-72
2023/05/09 06:53:16;;;;;;;23.70;13.95;;;14.60;99.90;;;;;;4949836;29;20481;-73
2023/05/09 06:55:42;;;;;;;28.38;14.48;;;14.50;99.90;;;;;;4953433;29;20027;-73
2023/05/09 06:58:08;;;;;;;25.15;13.80;;;14.50;99.90;;;;;;4949485;29;20047;-72
2023/05/09 07:00:34;;;;;;;24.70;14.10;;;14.50;99.90;;;;;;4950121;29;20032;-72
2023/05/09 07:03:00;;;;;;;27.20;14.07;;;14.50;99.90;;;;;;4947878;28;20032;-72
2023/05/09 07:05:25;;;;;;;21.80;12.95;;;14.50;99.90;;;;;;4942071;29;20026;-72
2023/05/09 07:07:53;;;;;;;18.92;11.77;;;14.50;99.90;;;;;;4936245;29;20515;-72
2023/05/09 07:10:21;;;;;;;18.77;10.93;;;14.50;99.90;;;;;;4949394;29;20228;-72
2023/05/09 07:12:46;;;;;;;21.20;11.05;;;14.50;99.90;;;;;;4941919;29;20391;-72
2023/05/09 07:15:12;;;;;;;15.40;9.90;;;14.40;99.90;;;;;;4935950;29;20074;-72
2023/05/09 07:17:37;;;;;;;18.33;10.57;;;14.40;99.90;;;;;;4951553;29;20103;-72
2023/05/09 07:20:04;;;;;;;17.92;11.27;;;14.40;99.90;;;;;;4949035;29;20498;-72
2023/05/09 07:22:30;;;;;;;17.90;10.85;;;14.40;99.90;;;;;;4949945;29;20053;-72
2023/05/09 07:24:55;;;;;;;21.15;11.00;;;14.40;99.90;;;;;;4952795;28;20688;-72
2023/05/09 07:27:21;;;;;;;17.73;10.52;;;14.50;99.90;;;;;;4939929;29;20035;-72
2023/05/09 07:29:48;;;;;;;18.17;10.60;;;14.50;99.90;;;;;;4953963;29;20023;-72
2023/05/09 07:32:13;;;;;;;17.35;10.43;;;14.50;99.90;;;;;;4949520;28;20016;-72
2023/05/09 07:34:39;;;;;;;13.88;9.98;;;14.50;99.90;;;;;;4946936;29;20550;-72
2023/05/09 07:37:05;;;;;;;17.13;11.05;;;14.50;99.90;;;;;;4939263;29;20071;-72
2023/05/09 07:39:30;;;;;;;20.13;11.07;;;14.60;99.90;;;;;;4942034;29;20059;-72
2023/05/09 07:41:56;;;;;;;17.42;11.55;;;14.60;99.90;;;;;;4946092;29;20030;-73
2023/05/09 07:44:22;;;;;;;20.67;12.45;;;14.60;99.90;;;;;;4944647;29;20027;-72
2023/05/09 07:46:48;;;;;;;21.02;12.38;;;14.60;99.90;;;;;;4938574;29;20015;-73
2023/05/09 07:49:13;;;;;;;20.52;12.93;;;14.70;99.90;;;;;;4938545;29;20130;-72
2023/05/09 07:51:40;;;;;;;22.88;13.82;;;14.70;99.90;;;;;;4950293;28;20028;-72
2023/05/09 07:54:05;;;;;;;22.83;12.75;;;14.70;99.90;;;;;;4950209;29;20039;-72
2023/05/09 07:56:31;;;;;;;23.67;14.32;;;14.70;99.90;;;;;;4953342;28;20398;-72
2023/05/09 07:58:58;;;;;;;21.42;13.30;;;14.80;99.90;;;;;;4951123;29;20059;-72
2023/05/09 08:01:23;;;;;;;21.38;14.38;;;14.70;99.90;;;;;;4952226;28;20494;-72
2023/05/09 08:03:49;;;;;;;21.40;13.60;;;14.80;99.90;;;;;;4947793;29;20075;-72
2023/05/09 08:06:14;;;;;;;24.27;14.15;;;14.80;99.90;;;;;;4952263;28;20126;-72
2023/05/09 08:08:40;;;;;;;22.77;13.27;;;14.80;99.90;;;;;;4952977;29;20545;-72
2023/05/09 08:11:06;;;;;;;22.75;13.43;;;14.80;99.90;;;;;;4951441;29;20039;-72
2023/05/09 08:13:32;;;;;;;19.45;13.25;;;14.80;99.90;;;;;;4952636;29;20418;-72
2023/05/09 08:15:57;;;;;;;21.98;13.98;;;14.80;99.90;;;;;;4951550;29;20031;-72
2023/05/09 08:18:23;;;;;;;20.65;13.57;;;14.80;99.90;;;;;;4945792;29;20030;-72
2023/05/09 08:20:48;;;;;;;20.40;14.25;;;14.80;99.90;;;;;;4941285;28;20050;-72
2023/05/09 08:23:14;;;;;;;23.02;15.32;;;14.80;99.90;;;;;;4952901;28;20034;-72
2023/05/09 08:25:40;;;;;;;23.60;14.13;;;14.80;99.90;;;;;;4949314;28;20028;-72
2023/05/09 08:28:05;;;;;;;20.67;14.45;;;14.80;99.90;;;;;;4952940;28;20023;-72
2023/05/09 08:30:31;;;;;;;21.05;14.13;;;14.90;99.90;;;;;;4953054;28;20019;-72
2023/05/09 08:32:56;;;;;;;19.67;14.32;;;14.90;99.90;;;;;;4950365;28;20040;-72
2023/05/09 08:35:22;;;;;;;21.20;15.00;;;14.90;99.90;;;;;;4951980;28;20023;-72
2023/05/09 08:37:48;;;;;;;23.67;14.95;;;14.90;99.90;;;;;;4951875;29;20023;-72
2023/05/09 08:40:14;;;;;;;20.10;14.52;;;14.90;99.90;;;;;;4952367;29;20030;-72
2023/05/09 08:42:40;;;;;;;21.65;14.88;;;14.90;99.90;;;;;;4947373;28;20091;-72
2023/05/09 08:45:09;;;;;;;20.60;15.32;;;14.90;99.90;;;;;;4954646;29;20078;-72
2023/05/09 08:47:36;;;;;;;24.40;15.20;;;14.90;99.90;;;;;;4952317;29;20118;-72
2023/05/09 08:50:03;;;;;;;21.55;14.85;;;15.00;99.90;;;;;;4955724;28;20102;-72
2023/05/09 08:52:33;;;;;;;22.33;14.68;;;14.90;99.90;;;;;;4955711;29;20167;-72
2023/05/09 08:55:00;;;;;;;21.30;15.45;;;15.00;99.90;;;;;;4946140;28;20431;-72
2023/05/09 08:57:27;;;;;;;21.85;15.48;;;15.00;99.90;;;;;;4952129;28;20678;-72
2023/05/09 08:59:54;;;;;;;21.58;16.08;;;15.00;99.90;;;;;;4952808;29;20043;-72
2023/05/09 09:02:21;;;;;;;23.35;16.67;;;15.00;99.90;;;;;;4955698;28;20027;-72
2023/05/09 09:04:46;;;;;;;23.20;16.27;;;15.00;99.90;;;;;;4942863;28;20027;-72
2023/05/09 09:07:14;;;;;;;20.45;15.45;;;15.00;99.90;;;;;;4953080;29;20028;-72
2023/05/09 09:09:45;;;;;;;23.10;16.02;;;15.10;99.90;;;;;;4950598;29;20071;-72
2023/05/09 09:12:12;;;;;;;21.67;16.13;;;15.00;99.90;;;;;;4954026;29;20027;-72
2023/05/09 09:14:41;;;;;;;21.55;16.02;;;15.00;99.90;;;;;;4946647;28;20430;-72
2023/05/09 09:17:08;;;;;;;21.60;15.73;;;15.00;99.90;;;;;;4953083;28;20102;-72
2023/05/09 09:19:38;;;;;;;22.45;15.55;;;15.10;99.90;;;;;;4955975;29;20035;-72
2023/05/09 09:22:04;;;;;;;21.60;15.75;;;15.10;99.90;;;;;;4956405;28;20077;-72
2023/05/09 09:24:31;;;;;;;22.75;15.68;;;15.10;99.90;;;;;;4956018;29;20022;-72
2023/05/09 09:26:57;;;;;;;22.50;16.55;;;15.10;99.90;;;;;;4954804;28;20110;-72
2023/05/09 09:29:23;;;;;;;23.40;16.00;;;15.10;99.90;;;;;;4954870;29;20110;-72
2023/05/09 09:31:53;;;;;;;21.50;16.33;;;15.10;99.90;;;;;;4954344;29;20030;-72
2023/05/09 09:34:21;;;;;;;23.00;17.02;;;15.10;99.90;;;;;;4954318;29;20114;-72
2023/05/09 09:36:48;;;;;;;21.83;16.35;;;15.10;99.90;;;;;;4956590;28;20743;-72
2023/05/09 09:39:14;;;;;;;23.15;16.45;;;15.10;99.90;;;;;;4952110;29;20491;-72
2023/05/09 09:41:41;;;;;;;23.05;16.05;;;15.10;99.90;;;;;;4956132;28;20032;-72
2023/05/09 09:44:14;;;;;;;20.10;15.98;;;15.10;99.90;;;;;;4947862;28;20027;-74
2023/05/09 09:47:00;;;;;;;20.70;15.95;;;15.10;99.90;;;;;;4945258;29;20028;-72
2023/05/09 09:49:26;;;;;;;22.08;16.15;;;15.10;99.90;;;;;;4955601;28;20033;-72
2023/05/09 09:51:53;;;;;;;21.27;16.33;;;15.10;99.90;;;;;;4953264;28;20023;-72
2023/05/09 09:54:19;;;;;;;21.75;16.70;;;15.10;99.90;;;;;;4947305;28;20034;-72
2023/05/09 09:56:49;;;;;;;24.48;18.35;;;15.10;99.90;;;;;;4954790;28;20055;-72
2023/05/09 09:59:19;;;;;;;24.70;17.50;;;15.20;99.90;;;;;;4944880;28;20087;-72
2023/05/09 10:02:03;;;;;;;26.38;17.92;;;15.20;99.90;;;;;;4940184;28;20035;-72
2023/05/09 10:04:31;;;;;;;24.85;17.55;;;15.20;99.90;;;;;;4955250;28;20035;-72
2023/05/09 10:06:58;;;;;;;26.38;17.77;;;15.20;99.90;;;;;;4955100;29;20027;-72
2023/05/09 10:09:26;;;;;;;21.73;17.85;;;15.20;99.90;;;;;;4955598;28;20038;-72
2023/05/09 10:11:53;;;;;;;25.30;18.00;;;15.20;99.90;;;;;;4952390;28;20034;-72
2023/05/09 10:14:22;;;;;;;24.60;17.70;;;15.20;99.90;;;;;;4955580;29;20560;-72
2023/05/09 10:16:49;;;;;;;22.88;17.52;;;15.20;99.90;;;;;;4953960;29;20030;-72
2023/05/09 10:19:18;;;;;;;21.45;17.00;;;15.30;99.90;;;;;;4949068;28;20025;-72
2023/05/09 10:21:47;;;;;;;22.20;16.70;;;15.30;99.90;;;;;;4955052;29;20046;-72
2023/05/09 10:24:15;;;;;;;20.58;16.42;;;15.20;99.90;;;;;;4951594;28;20063;-72
2023/05/09 10:26:46;;;;;;;24.05;17.48;;;15.20;99.90;;;;;;4953732;29;20027;-72
2023/05/09 10:29:19;;;;;;;20.95;17.33;;;15.20;99.90;;;;;;4953953;28;20410;-72
2023/05/09 10:31:45;;;;;;;22.05;17.23;;;15.30;99.90;;;;;;4949148;29;20039;-72
2023/05/09 10:34:12;;;;;;;19.95;16.70;;;15.30;99.90;;;;;;4950230;28;20380;-72
2023/05/09 10:36:38;;;;;;;17.35;15.13;;;15.30;99.90;;;;;;4943628;28;20023;-72
2023/05/09 10:39:04;;;;;;;19.65;15.32;;;15.30;99.90;;;;;;4938264;29;20078;-72
2023/05/09 10:41:30;;;;;;;19.15;16.05;;;15.30;99.90;;;;;;4951787;29;20611;-72
2023/05/09 10:43:58;;;;;;;23.17;16.13;;;15.20;99.90;;;;;;4949667;28;20051;-72
2023/05/09 10:46:24;;;;;;;21.02;16.35;;;15.30;99.90;;;;;;4954072;28;20057;-72
2023/05/09 10:48:50;;;;;;;19.15;14.82;;;15.30;99.90;;;;;;4954822;29;20111;-72
2023/05/09 10:51:16;;;;;;;19.48;15.35;;;15.20;99.90;;;;;;4954611;28;20426;-72
2023/05/09 10:53:47;;;;;;;17.50;15.02;;;15.20;99.90;;;;;;4953252;29;20031;-72
2023/05/09 10:56:34;;;;;;;19.63;15.40;;;15.20;99.90;;;;;;4953922;29;20042;-72
2023/05/09 10:59:00;;;;;;;17.25;14.48;;;15.30;99.90;;;;;;4946599;28;20155;-72
2023/05/09 11:01:31;;;;;;;20.85;16.02;;;15.30;99.90;;;;;;4950689;29;20436;-73
2023/05/09 11:03:58;;;;;;;17.00;15.13;;;15.30;99.90;;;;;;4948904;29;20063;-72
2023/05/09 11:06:39;;;;;;;19.30;15.95;;;15.30;99.90;;;;;;4936532;29;20041;-72
2023/05/09 11:09:36;;;;;;;20.83;16.02;;;15.30;99.90;;;;;;4942157;28;20102;-72
2023/05/09 11:12:09;;;;;;;19.92;17.00;;;15.40;99.90;;;;;;4954293;29;20032;-72
2023/05/09 11:14:45;;;;;;;21.75;17.20;;;15.40;99.90;;;;;;4953747;29;20121;-72
2023/05/09 11:17:36;;;;;;;17.00;12.63;;;15.40;99.90;;;;;;4944977;28;20482;-72
2023/05/09 11:20:05;;;;;;;11.77;10.02;;;15.40;99.90;;;;;;4951441;29;20557;-72
2023/05/09 11:22:38;;;;;;;10.30;9.18;;;15.30;99.90;;;;;;4954246;29;20043;-72
2023/05/09 11:25:12;;;;;;;11.32;8.50;;;15.30;99.90;;;;;;4954104;28;20031;-72
2023/05/09 11:27:47;;;;;;;12.38;8.85;;;15.20;99.90;;;;;;4943286;28;20121;-72
2023/05/09 11:30:22;;;;;;;11.02;9.25;;;15.20;99.90;;;;;;4953558;28;20049;-72
2023/05/09 11:32:54;;;;;;;11.93;8.82;;;15.20;99.90;;;;;;4952323;28;20145;-72
2023/05/09 11:35:28;;;;;;;14.65;9.95;;;15.20;99.90;;;;;;4952958;28;20074;-72
2023/05/09 11:38:05;;;;;;;12.23;10.30;;;15.20;99.90;;;;;;4950312;29;20035;-72
2023/05/09 11:40:32;;;;;;;9.80;8.45;;;15.30;99.90;;;;;;4947120;28;20043;-72
2023/05/09 11:42:59;;;;;;;11.18;9.20;;;15.30;99.90;;;;;;4951066;28;20023;-72
2023/05/09 11:45:30;;;;;;;11.40;8.48;;;15.30;99.90;;;;;;4951703;29;20027;-72
2023/05/09 11:47:56;;;;;;;9.82;8.30;;;15.20;99.90;;;;;;4942992;29;20044;-72
2023/05/09 11:50:22;;;;;;;10.32;8.23;;;15.20;99.90;;;;;;4939620;29;20028;-72
2023/05/09 11:52:48;;;;;;;10.23;8.00;;;15.20;99.90;;;;;;4951080;28;20483;-71
2023/05/09 11:55:17;;;;;;;9.48;7.20;;;15.30;99.90;;;;;;4935753;29;20026;-72
2023/05/09 11:57:52;;;;;;;9.02;7.43;;;15.30;99.90;;;;;;4945394;29;20078;-73
2023/05/09 12:00:22;;;;;;;;;;;15.20;99.90;;;;;;4951952;29;20043;-73
2023/05/09 12:02:48;;;;;;;9.55;7.32;;;15.20;99.90;;;;;;4953661;28;19917;-73
2023/05/09 12:05:17;;;;;;;13.55;7.53;;;15.20;99.90;;;;;;4950665;29;20514;-73
2023/05/09 12:07:43;;;;;;;10.43;7.72;;;15.10;99.90;;;;;;4946072;29;20027;-73
2023/05/09 12:10:11;;;;;;;10.05;7.63;;;15.10;99.90;;;;;;4943187;28;20719;-73
2023/05/09 12:12:48;;;;;;;9.13;7.03;;;15.10;99.90;;;;;;4953038;29;20473;-73
2023/05/09 12:15:15;;;;;;;8.68;6.53;;;15.10;99.90;;;;;;4943306;28;20028;-73
2023/05/09 12:17:42;;;;;;;9.18;6.15;;;15.10;99.90;;;;;;4938743;28;20375;-73
2023/05/09 12:20:08;;;;;;;7.45;5.40;;;15.10;99.90;;;;;;4946602;29;20035;-74
2023/05/09 12:22:36;;;;;;;5.78;4.10;;;15.10;99.90;;;;;;4951524;28;20151;-70
2023/05/09 12:25:09;;;;;;;6.88;4.70;;;15.10;99.90;;;;;;4951185;29;20023;-73
2023/05/09 12:27:36;;;;;;;6.38;4.90;;;15.10;99.90;;;;;;4949488;28;20038;-72
2023/05/09 12:30:12;;;;;;;5.90;4.70;;;15.10;99.90;;;;;;4952735;28;20158;-73